sensor_id;sensor_type;location;lat;lon;timestamp;pressure;altitude;pressure_sealevel;temperature;humidity
13033;BME280;6583;42.632;23.298;2023-06-05T00:01:28;70455.59;;;-146.40;95.18
13033;BME280;6583;42.632;23.298;2023-06-05T00:03:55;70453.56;;;-146.40;93.83
13033;BME280;6583;42.632;23.298;2023-06-05T00:06:21;70457.59;;;-146.40;92.15
13033;BME280;6583;42.632;23.298;2023-06-05T00:08:49;70467.72;;;-146.40;92.12
13033;BME280;6583;42.632;23.298;2023-06-05T00:11:16;70463.69;;;-146.40;92.42
13033;BME280;6583;42.632;23.298;2023-06-05T00:13:43;70465.69;;;-146.40;92.21
13033;BME280;6583;42.632;23.298;2023-06-05T00:16:11;70477.84;;;-146.40;91.91
13033;BME280;6583;42.632;23.298;2023-06-05T00:18:38;70471.78;;;-146.40;93.57
13033;BME280;6583;42.632;23.298;2023-06-05T00:21:04;70461.66;;;-146.40;94.58
13033;BME280;6583;42.632;23.298;2023-06-05T00:23:31;70449.53;;;-146.40;94.45
13033;BME280;6583;42.632;23.298;2023-06-05T00:25:59;70441.44;;;-146.40;93.87
13033;BME280;6583;42.632;23.298;2023-06-05T00:28:26;70429.28;;;-146.40;92.82
13033;BME280;6583;42.632;23.298;2023-06-05T00:30:53;70421.19;;;-146.40;92.33
13033;BME280;6583;42.632;23.298;2023-06-05T00:33:20;70411.06;;;-146.40;90.86
13033;BME280;6583;42.632;23.298;2023-06-05T00:35:47;70405.00;;;-146.40;90.92
13033;BME280;6583;42.632;23.298;2023-06-05T00:38:13;70396.91;;;-146.40;91.23
13033;BME280;6583;42.632;23.298;2023-06-05T00:40:40;70388.81;;;-146.40;90.66
13033;BME280;6583;42.632;23.298;2023-06-05T00:43:08;70382.75;;;-146.40;89.86
13033;BME280;6583;42.632;23.298;2023-06-05T00:45:35;70378.72;;;-146.40;88.12
13033;BME280;6583;42.632;23.298;2023-06-05T00:48:02;70378.72;;;-146.40;88.28
13033;BME280;6583;42.632;23.298;2023-06-05T00:50:29;70378.72;;;-146.40;88.11
13033;BME280;6583;42.632;23.298;2023-06-05T00:52:58;70384.78;;;-146.40;88.90
13033;BME280;6583;42.632;23.298;2023-06-05T00:55:25;70386.81;;;-146.40;89.51
13033;BME280;6583;42.632;23.298;2023-06-05T00:57:52;70390.84;;;-146.40;89.78
13033;BME280;6583;42.632;23.298;2023-06-05T01:00:21;70386.81;;;-146.40;89.78
13033;BME280;6583;42.632;23.298;2023-06-05T01:02:48;70405.00;;;-146.40;90.88
13033;BME280;6583;42.632;23.298;2023-06-05T01:05:18;70413.09;;;-146.40;91.43
13033;BME280;6583;42.632;23.298;2023-06-05T01:07:45;70409.06;;;-146.40;92.01
13033;BME280;6583;42.632;23.298;2023-06-05T01:10:14;70398.94;;;-146.40;92.01
13033;BME280;6583;42.632;23.298;2023-06-05T01:12:43;70392.88;;;-146.40;91.52
13033;BME280;6583;42.632;23.298;2023-06-05T01:15:13;70400.97;;;-146.40;90.74
13033;BME280;6583;42.632;23.298;2023-06-05T01:17:42;70405.00;;;-146.40;91.07
13033;BME280;6583;42.632;23.298;2023-06-05T01:20:12;70396.91;;;-146.40;91.41
13033;BME280;6583;42.632;23.298;2023-06-05T01:22:39;70386.81;;;-146.40;90.79
13033;BME280;6583;42.632;23.298;2023-06-05T01:25:08;70382.75;;;-146.40;90.76
13033;BME280;6583;42.632;23.298;2023-06-05T01:27:41;70394.91;;;-146.40;91.13
13033;BME280;6583;42.632;23.298;2023-06-05T01:30:15;70392.88;;;-146.40;91.97
13033;BME280;6583;42.632;23.298;2023-06-05T01:32:48;70392.88;;;-146.40;92.33
13033;BME280;6583;42.632;23.298;2023-06-05T01:35:19;70378.72;;;-146.40;92.01
13033;BME280;6583;42.632;23.298;2023-06-05T01:37:53;70376.69;;;-146.40;91.53
13033;BME280;6583;42.632;23.298;2023-06-05T01:40:23;70364.53;;;-146.40;90.88
13033;BME280;6583;42.632;23.298;2023-06-05T01:42:50;70356.44;;;-146.40;90.42
13033;BME280;6583;42.632;23.298;2023-06-05T01:45:17;70348.38;;;-146.40;89.59
13033;BME280;6583;42.632;23.298;2023-06-05T01:47:45;70354.44;;;-146.40;89.03
13033;BME280;6583;42.632;23.298;2023-06-05T01:50:14;70344.31;;;-146.40;88.29
13033;BME280;6583;42.632;23.298;2023-06-05T01:52:41;70344.31;;;-146.40;87.64
13033;BME280;6583;42.632;23.298;2023-06-05T01:55:16;70332.19;;;-146.40;87.77
13033;BME280;6583;42.632;23.298;2023-06-05T01:57:45;70332.19;;;-146.40;87.98
13033;BME280;6583;42.632;23.298;2023-06-05T02:00:12;70336.22;;;-146.40;87.20
13033;BME280;6583;42.632;23.298;2023-06-05T02:02:41;70340.28;;;-146.40;87.08
13033;BME280;6583;42.632;23.298;2023-06-05T02:05:08;70328.13;;;-146.40;87.67
13033;BME280;6583;42.632;23.298;2023-06-05T02:07:36;70328.13;;;-146.40;87.08
13033;BME280;6583;42.632;23.298;2023-06-05T02:10:04;70354.44;;;-146.40;85.93
13033;BME280;6583;42.632;23.298;2023-06-05T02:12:31;70372.63;;;-146.40;86.65
13033;BME280;6583;42.632;23.298;2023-06-05T02:14:59;70396.91;;;-146.40;87.85
13033;BME280;6583;42.632;23.298;2023-06-05T02:17:26;70407.03;;;-146.40;89.09
13033;BME280;6583;42.632;23.298;2023-06-05T02:19:52;70425.25;;;-146.40;90.30
13033;BME280;6583;42.632;23.298;2023-06-05T02:22:19;70447.50;;;-146.40;91.24
13033;BME280;6583;42.632;23.298;2023-06-05T02:24:48;70457.59;;;-146.40;92.31
13033;BME280;6583;42.632;23.298;2023-06-05T02:27:15;70465.69;;;-146.40;93.00
13033;BME280;6583;42.632;23.298;2023-06-05T02:29:42;70457.59;;;-146.40;94.43
13033;BME280;6583;42.632;23.298;2023-06-05T02:32:10;70463.69;;;-146.40;94.19
13033;BME280;6583;42.632;23.298;2023-06-05T02:34:38;70457.59;;;-146.40;94.92
13033;BME280;6583;42.632;23.298;2023-06-05T02:37:04;70441.44;;;-146.40;95.04
13033;BME280;6583;42.632;23.298;2023-06-05T02:39:31;70435.34;;;-146.40;93.15
13033;BME280;6583;42.632;23.298;2023-06-05T02:41:58;70445.47;;;-146.40;92.15
13033;BME280;6583;42.632;23.298;2023-06-05T02:44:25;70445.47;;;-146.40;92.76
13033;BME280;6583;42.632;23.298;2023-06-05T02:46:52;70443.44;;;-146.40;93.66
13033;BME280;6583;42.632;23.298;2023-06-05T02:49:20;70431.31;;;-146.40;93.60
13033;BME280;6583;42.632;23.298;2023-06-05T02:51:47;70417.16;;;-146.40;91.42
13033;BME280;6583;42.632;23.298;2023-06-05T02:54:13;70413.09;;;-146.40;90.13
13033;BME280;6583;42.632;23.298;2023-06-05T02:56:40;70427.25;;;-146.40;90.23
13033;BME280;6583;42.632;23.298;2023-06-05T02:59:09;70421.19;;;-146.40;91.37
13033;BME280;6583;42.632;23.298;2023-06-05T03:01:36;70427.25;;;-146.40;92.22
13033;BME280;6583;42.632;23.298;2023-06-05T03:04:02;70421.19;;;-146.40;91.99
13033;BME280;6583;42.632;23.298;2023-06-05T03:06:30;70425.25;;;-146.40;90.66
13033;BME280;6583;42.632;23.298;2023-06-05T03:08:59;70425.25;;;-146.40;90.25
13033;BME280;6583;42.632;23.298;2023-06-05T03:11:26;70421.19;;;-146.40;90.98
13033;BME280;6583;42.632;23.298;2023-06-05T03:13:52;70423.22;;;-146.40;89.80
13033;BME280;6583;42.632;23.298;2023-06-05T03:16:19;70427.25;;;-146.40;89.15
13033;BME280;6583;42.632;23.298;2023-06-05T03:18:48;70427.25;;;-146.40;89.92
13033;BME280;6583;42.632;23.298;2023-06-05T03:21:15;70429.28;;;-146.40;90.65
13033;BME280;6583;42.632;23.298;2023-06-05T03:23:43;70421.19;;;-146.40;91.01
13033;BME280;6583;42.632;23.298;2023-06-05T03:26:10;70427.25;;;-146.40;90.26
13033;BME280;6583;42.632;23.298;2023-06-05T03:28:36;70435.34;;;-146.40;90.10
13033;BME280;6583;42.632;23.298;2023-06-05T03:31:03;70433.34;;;-146.40;90.38
13033;BME280;6583;42.632;23.298;2023-06-05T03:33:30;70431.31;;;-146.40;90.80
13033;BME280;6583;42.632;23.298;2023-06-05T03:35:56;70425.25;;;-146.40;91.47
13033;BME280;6583;42.632;23.298;2023-06-05T03:38:25;70431.31;;;-146.40;91.77
13033;BME280;6583;42.632;23.298;2023-06-05T03:40:53;70433.34;;;-146.40;92.64
13033;BME280;6583;42.632;23.298;2023-06-05T03:43:20;70431.31;;;-146.40;93.55
13033;BME280;6583;42.632;23.298;2023-06-05T03:45:50;70421.19;;;-146.40;94.08
13033;BME280;6583;42.632;23.298;2023-06-05T03:48:17;70407.03;;;-146.40;93.84
13033;BME280;6583;42.632;23.298;2023-06-05T03:50:45;70398.94;;;-146.40;94.00
13033;BME280;6583;42.632;23.298;2023-06-05T03:53:12;70400.97;;;-146.40;94.39
13033;BME280;6583;42.632;23.298;2023-06-05T03:55:40;70402.97;;;-146.40;94.76
13033;BME280;6583;42.632;23.298;2023-06-05T03:58:13;70388.81;;;-146.40;94.69
13033;BME280;6583;42.632;23.298;2023-06-05T04:00:40;70378.72;;;-146.40;95.13
13033;BME280;6583;42.632;23.298;2023-06-05T04:03:08;70368.59;;;-146.40;94.85
13033;BME280;6583;42.632;23.298;2023-06-05T04:05:36;70360.50;;;-146.40;94.50
13033;BME280;6583;42.632;23.298;2023-06-05T04:08:02;70344.31;;;-146.40;94.49
13033;BME280;6583;42.632;23.298;2023-06-05T04:10:29;70336.22;;;-146.40;94.35
13033;BME280;6583;42.632;23.298;2023-06-05T04:12:56;70334.19;;;-146.40;95.14
13033;BME280;6583;42.632;23.298;2023-06-05T04:15:25;70324.09;;;-146.40;94.69
13033;BME280;6583;42.632;23.298;2023-06-05T04:17:52;70316.00;;;-146.40;95.16
13033;BME280;6583;42.632;23.298;2023-06-05T04:20:19;70313.97;;;-146.40;94.79
13033;BME280;6583;42.632;23.298;2023-06-05T04:22:46;70303.84;;;-146.40;94.15
13033;BME280;6583;42.632;23.298;2023-06-05T04:25:13;70303.84;;;-146.40;94.08
13033;BME280;6583;42.632;23.298;2023-06-05T04:27:41;70299.81;;;-146.40;93.69
13033;BME280;6583;42.632;23.298;2023-06-05T04:30:09;70299.81;;;-146.40;94.07
13033;BME280;6583;42.632;23.298;2023-06-05T04:32:38;70295.75;;;-146.40;94.93
13033;BME280;6583;42.632;23.298;2023-06-05T04:35:06;70285.66;;;-146.40;95.79
13033;BME280;6583;42.632;23.298;2023-06-05T04:37:34;70281.59;;;-146.40;95.76
13033;BME280;6583;42.632;23.298;2023-06-05T04:40:02;70279.56;;;-146.40;95.86
13033;BME280;6583;42.632;23.298;2023-06-05T04:42:31;70273.50;;;-146.40;96.09
13033;BME280;6583;42.632;23.298;2023-06-05T04:44:58;70269.47;;;-146.40;96.64
13033;BME280;6583;42.632;23.298;2023-06-05T04:47:26;70259.34;;;-146.40;97.13
13033;BME280;6583;42.632;23.298;2023-06-05T04:49:57;70263.38;;;-146.40;94.72
13033;BME280;6583;42.632;23.298;2023-06-05T04:52:24;70257.31;;;-146.40;95.90
13033;BME280;6583;42.632;23.298;2023-06-05T04:54:52;70253.28;;;-146.40;95.29
13033;BME280;6583;42.632;23.298;2023-06-05T04:57:18;70239.13;;;-146.40;93.28
13033;BME280;6583;42.632;23.298;2023-06-05T04:59:45;70235.06;;;-146.40;93.15
13033;BME280;6583;42.632;23.298;2023-06-05T05:02:12;70226.97;;;-146.40;92.49
13033;BME280;6583;42.632;23.298;2023-06-05T05:04:38;70218.88;;;-146.40;92.09
13033;BME280;6583;42.632;23.298;2023-06-05T05:07:06;70214.84;;;-146.40;90.41
13033;BME280;6583;42.632;23.298;2023-06-05T05:09:38;70206.75;;;-146.40;91.20
13033;BME280;6583;42.632;23.298;2023-06-05T05:12:05;70202.69;;;-146.40;90.25
13033;BME280;6583;42.632;23.298;2023-06-05T05:14:32;70186.50;;;-146.40;90.74
13033;BME280;6583;42.632;23.298;2023-06-05T05:16:59;70176.41;;;-146.40;89.40
13033;BME280;6583;42.632;23.298;2023-06-05T05:19:26;70174.38;;;-146.40;89.76
13033;BME280;6583;42.632;23.298;2023-06-05T05:21:53;70154.16;;;-146.40;89.95
13033;BME280;6583;42.632;23.298;2023-06-05T05:24:21;70140.00;;;-146.40;88.82
13033;BME280;6583;42.632;23.298;2023-06-05T05:26:48;70123.81;;;-146.40;88.46
13033;BME280;6583;42.632;23.298;2023-06-05T05:29:15;70140.00;;;-146.40;88.04
13033;BME280;6583;42.632;23.298;2023-06-05T05:31:42;70148.09;;;-146.40;88.91
13033;BME280;6583;42.632;23.298;2023-06-05T05:34:09;70156.16;;;-146.40;89.63
13033;BME280;6583;42.632;23.298;2023-06-05T05:36:36;70158.19;;;-146.40;89.71
13033;BME280;6583;42.632;23.298;2023-06-05T05:39:03;70196.63;;;-146.40;90.20
13033;BME280;6583;42.632;23.298;2023-06-05T05:41:31;70216.84;;;-146.40;92.52
13033;BME280;6583;42.632;23.298;2023-06-05T05:43:57;70210.78;;;-146.40;93.43
13033;BME280;6583;42.632;23.298;2023-06-05T05:46:24;70212.81;;;-146.40;94.82
13033;BME280;6583;42.632;23.298;2023-06-05T05:48:50;70206.75;;;-146.40;93.86
13033;BME280;6583;42.632;23.298;2023-06-05T05:51:17;70200.69;;;-146.40;94.81
13033;BME280;6583;42.632;23.298;2023-06-05T05:53:44;70190.56;;;-146.40;94.04
13033;BME280;6583;42.632;23.298;2023-06-05T05:56:11;70188.53;;;-146.40;94.91
13033;BME280;6583;42.632;23.298;2023-06-05T05:58:39;70180.44;;;-146.40;95.22
13033;BME280;6583;42.632;23.298;2023-06-05T06:01:05;70166.28;;;-146.40;95.27
13033;BME280;6583;42.632;23.298;2023-06-05T06:03:32;70186.50;;;-146.40;93.57
13033;BME280;6583;42.632;23.298;2023-06-05T06:06:02;70178.44;;;-146.40;94.75
13033;BME280;6583;42.632;23.298;2023-06-05T06:08:32;70194.59;;;-146.40;95.09
13033;BME280;6583;42.632;23.298;2023-06-05T06:10:59;70204.72;;;-146.40;95.52
13033;BME280;6583;42.632;23.298;2023-06-05T06:13:26;70194.59;;;-146.40;95.15
13033;BME280;6583;42.632;23.298;2023-06-05T06:15:54;70188.53;;;-146.40;95.60
13033;BME280;6583;42.632;23.298;2023-06-05T06:18:21;70182.47;;;-146.40;94.80
13033;BME280;6583;42.632;23.298;2023-06-05T06:20:47;70178.44;;;-146.40;94.79
13033;BME280;6583;42.632;23.298;2023-06-05T06:23:14;70178.44;;;-146.40;95.90
13033;BME280;6583;42.632;23.298;2023-06-05T06:25:41;70164.25;;;-146.40;94.64
13033;BME280;6583;42.632;23.298;2023-06-05T06:28:07;70156.16;;;-146.40;95.36
13033;BME280;6583;42.632;23.298;2023-06-05T06:30:34;70158.19;;;-146.40;94.68
13033;BME280;6583;42.632;23.298;2023-06-05T06:33:03;70152.13;;;-146.40;95.60
13033;BME280;6583;42.632;23.298;2023-06-05T06:35:30;70162.25;;;-146.40;93.88
13033;BME280;6583;42.632;23.298;2023-06-05T06:37:58;70166.28;;;-146.40;94.06
13033;BME280;6583;42.632;23.298;2023-06-05T06:40:25;70164.25;;;-146.40;94.69
13033;BME280;6583;42.632;23.298;2023-06-05T06:42:54;70162.25;;;-146.40;95.12
13033;BME280;6583;42.632;23.298;2023-06-05T06:45:21;70150.09;;;-146.40;95.13
13033;BME280;6583;42.632;23.298;2023-06-05T06:47:47;70140.00;;;-146.40;95.61
13033;BME280;6583;42.632;23.298;2023-06-05T06:50:15;70123.81;;;-146.40;95.87
13033;BME280;6583;42.632;23.298;2023-06-05T06:52:42;70115.72;;;-146.40;95.72
13033;BME280;6583;42.632;23.298;2023-06-05T06:55:09;70101.56;;;-146.40;95.18
13033;BME280;6583;42.632;23.298;2023-06-05T06:57:36;70089.41;;;-146.40;95.55
13033;BME280;6583;42.632;23.298;2023-06-05T07:00:04;70087.38;;;-146.40;93.58
13033;BME280;6583;42.632;23.298;2023-06-05T07:02:35;70087.38;;;-146.40;91.94
13033;BME280;6583;42.632;23.298;2023-06-05T07:05:03;70081.31;;;-146.40;92.97
13033;BME280;6583;42.632;23.298;2023-06-05T07:07:31;70085.38;;;-146.40;91.46
13033;BME280;6583;42.632;23.298;2023-06-05T07:09:57;70069.19;;;-146.40;92.26
13033;BME280;6583;42.632;23.298;2023-06-05T07:12:24;70057.03;;;-146.40;91.16
13033;BME280;6583;42.632;23.298;2023-06-05T07:14:51;70069.19;;;-146.40;91.37
13033;BME280;6583;42.632;23.298;2023-06-05T07:17:19;70055.03;;;-146.40;91.35
13033;BME280;6583;42.632;23.298;2023-06-05T07:19:46;70065.13;;;-146.40;89.35
13033;BME280;6583;42.632;23.298;2023-06-05T07:22:13;70069.19;;;-146.40;88.33
13033;BME280;6583;42.632;23.298;2023-06-05T07:24:42;70063.13;;;-146.40;87.29
13033;BME280;6583;42.632;23.298;2023-06-05T07:27:09;70057.03;;;-146.40;87.71
13033;BME280;6583;42.632;23.298;2023-06-05T07:29:35;70050.97;;;-146.40;88.80
13033;BME280;6583;42.632;23.298;2023-06-05T07:32:03;70036.81;;;-146.40;89.47
13033;BME280;6583;42.632;23.298;2023-06-05T07:34:31;70048.97;;;-146.40;86.88
13033;BME280;6583;42.632;23.298;2023-06-05T07:36:59;70040.88;;;-146.40;87.76
13033;BME280;6583;42.632;23.298;2023-06-05T07:39:26;70026.69;;;-146.40;88.63
13033;BME280;6583;42.632;23.298;2023-06-05T07:41:54;70020.63;;;-146.40;88.45
13033;BME280;6583;42.632;23.298;2023-06-05T07:44:21;70020.63;;;-146.40;86.58
13033;BME280;6583;42.632;23.298;2023-06-05T07:46:49;70016.59;;;-146.40;86.22
13033;BME280;6583;42.632;23.298;2023-06-05T07:49:16;70004.44;;;-146.40;86.27
13033;BME280;6583;42.632;23.298;2023-06-05T07:51:44;70000.41;;;-146.40;83.38
13033;BME280;6583;42.632;23.298;2023-06-05T07:54:14;70000.41;;;-146.40;84.03
13033;BME280;6583;42.632;23.298;2023-06-05T07:56:42;69990.28;;;-146.40;85.56
13033;BME280;6583;42.632;23.298;2023-06-05T07:59:10;69978.16;;;-146.40;84.42
13033;BME280;6583;42.632;23.298;2023-06-05T08:01:39;69964.00;;;-146.40;83.17
13033;BME280;6583;42.632;23.298;2023-06-05T08:04:07;69959.94;;;-146.40;81.86
13033;BME280;6583;42.632;23.298;2023-06-05T08:06:36;69964.00;;;-146.40;80.60
13033;BME280;6583;42.632;23.298;2023-06-05T08:09:05;69959.94;;;-146.40;79.63
13033;BME280;6583;42.632;23.298;2023-06-05T08:11:34;69964.00;;;-146.40;81.24
13033;BME280;6583;42.632;23.298;2023-06-05T08:14:02;69964.00;;;-146.40;79.16
13033;BME280;6583;42.632;23.298;2023-06-05T08:16:30;69961.97;;;-146.40;81.48
13033;BME280;6583;42.632;23.298;2023-06-05T08:18:57;69959.94;;;-146.40;81.42
13033;BME280;6583;42.632;23.298;2023-06-05T08:21:23;69964.00;;;-146.40;80.47
13033;BME280;6583;42.632;23.298;2023-06-05T08:23:50;69964.00;;;-146.40;81.29
13033;BME280;6583;42.632;23.298;2023-06-05T08:26:18;69955.91;;;-146.40;80.50
13033;BME280;6583;42.632;23.298;2023-06-05T08:28:45;69968.03;;;-146.40;79.93
13033;BME280;6583;42.632;23.298;2023-06-05T08:31:12;69964.00;;;-146.40;81.91
13033;BME280;6583;42.632;23.298;2023-06-05T08:33:41;69988.25;;;-146.40;79.66
13033;BME280;6583;42.632;23.298;2023-06-05T08:36:08;69992.31;;;-146.40;80.48
13033;BME280;6583;42.632;23.298;2023-06-05T08:38:35;69984.22;;;-146.40;81.98
13033;BME280;6583;42.632;23.298;2023-06-05T08:41:03;69988.25;;;-146.40;83.48
13033;BME280;6583;42.632;23.298;2023-06-05T08:43:35;70010.53;;;-146.40;85.64
13033;BME280;6583;42.632;23.298;2023-06-05T08:46:02;70018.59;;;-146.40;84.80
13033;BME280;6583;42.632;23.298;2023-06-05T08:48:32;70016.59;;;-146.40;85.25
13033;BME280;6583;42.632;23.298;2023-06-05T08:51:01;70020.63;;;-146.40;85.88
13033;BME280;6583;42.632;23.298;2023-06-05T08:53:31;70016.59;;;-146.40;86.60
13033;BME280;6583;42.632;23.298;2023-06-05T08:56:01;70016.59;;;-146.40;87.31
13033;BME280;6583;42.632;23.298;2023-06-05T08:58:28;70010.53;;;-146.40;87.88
13033;BME280;6583;42.632;23.298;2023-06-05T09:00:55;70000.41;;;-146.40;88.26
13033;BME280;6583;42.632;23.298;2023-06-05T09:03:22;69996.34;;;-146.40;87.82
13033;BME280;6583;42.632;23.298;2023-06-05T09:05:49;69992.31;;;-146.40;87.47
13033;BME280;6583;42.632;23.298;2023-06-05T09:08:19;69998.38;;;-146.40;88.68
13033;BME280;6583;42.632;23.298;2023-06-05T09:10:53;69994.34;;;-146.40;89.23
13033;BME280;6583;42.632;23.298;2023-06-05T09:13:20;69994.34;;;-146.40;89.56
13033;BME280;6583;42.632;23.298;2023-06-05T09:15:50;69996.34;;;-146.40;89.91
13033;BME280;6583;42.632;23.298;2023-06-05T09:18:17;69994.34;;;-146.40;90.49
13033;BME280;6583;42.632;23.298;2023-06-05T09:20:44;69996.34;;;-146.40;90.66
13033;BME280;6583;42.632;23.298;2023-06-05T09:23:24;69988.25;;;-146.40;90.30
13033;BME280;6583;42.632;23.298;2023-06-05T09:25:52;69988.25;;;-146.40;89.45
13033;BME280;6583;42.632;23.298;2023-06-05T09:28:20;70000.41;;;-146.40;88.56
13033;BME280;6583;42.632;23.298;2023-06-05T09:30:56;70004.44;;;-146.40;88.55
13033;BME280;6583;42.632;23.298;2023-06-05T09:33:24;70008.50;;;-146.40;89.19
13033;BME280;6583;42.632;23.298;2023-06-05T09:36:06;70012.53;;;-146.40;90.44
13033;BME280;6583;42.632;23.298;2023-06-05T09:38:34;70020.63;;;-146.40;90.79
13033;BME280;6583;42.632;23.298;2023-06-05T09:41:02;70020.63;;;-146.40;91.72
13033;BME280;6583;42.632;23.298;2023-06-05T09:43:29;70012.53;;;-146.40;92.63
13033;BME280;6583;42.632;23.298;2023-06-05T09:45:56;70018.59;;;-146.40;93.22
13033;BME280;6583;42.632;23.298;2023-06-05T09:48:22;70016.59;;;-146.40;93.96
13033;BME280;6583;42.632;23.298;2023-06-05T09:50:51;70010.53;;;-146.40;94.33
13033;BME280;6583;42.632;23.298;2023-06-05T09:53:19;70002.44;;;-146.40;93.70
13033;BME280;6583;42.632;23.298;2023-06-05T09:55:48;69996.34;;;-146.40;93.70
13033;BME280;6583;42.632;23.298;2023-06-05T09:58:15;69998.38;;;-146.40;94.18
13033;BME280;6583;42.632;23.298;2023-06-05T10:00:42;70002.44;;;-146.40;94.17
13033;BME280;6583;42.632;23.298;2023-06-05T10:03:14;69998.38;;;-146.40;94.66
13033;BME280;6583;42.632;23.298;2023-06-05T10:05:44;69990.28;;;-146.40;93.66
13033;BME280;6583;42.632;23.298;2023-06-05T10:08:12;69976.13;;;-146.40;94.57
13033;BME280;6583;42.632;23.298;2023-06-05T10:10:40;69976.13;;;-146.40;95.25
13033;BME280;6583;42.632;23.298;2023-06-05T10:13:09;69976.13;;;-146.40;95.09
13033;BME280;6583;42.632;23.298;2023-06-05T10:15:38;69976.13;;;-146.40;95.38
13033;BME280;6583;42.632;23.298;2023-06-05T10:18:06;69972.09;;;-146.40;96.27
13033;BME280;6583;42.632;23.298;2023-06-05T10:20:34;69970.06;;;-146.40;96.82
13033;BME280;6583;42.632;23.298;2023-06-05T10:23:02;69959.94;;;-146.40;97.45
13033;BME280;6583;42.632;23.298;2023-06-05T10:25:31;69959.94;;;-146.40;97.23
13033;BME280;6583;42.632;23.298;2023-06-05T10:28:18;69955.91;;;-146.40;96.87
13033;BME280;6583;42.632;23.298;2023-06-05T10:31:07;69955.91;;;-146.40;96.98
13033;BME280;6583;42.632;23.298;2023-06-05T10:33:51;69937.69;;;-146.40;96.60
13033;BME280;6583;42.632;23.298;2023-06-05T10:36:35;69939.72;;;-146.40;96.17
13033;BME280;6583;42.632;23.298;2023-06-05T10:39:07;69943.75;;;-146.40;93.75
13033;BME280;6583;42.632;23.298;2023-06-05T10:41:35;69939.72;;;-146.40;92.93
13033;BME280;6583;42.632;23.298;2023-06-05T10:44:03;69941.75;;;-146.40;91.46
13033;BME280;6583;42.632;23.298;2023-06-05T10:46:34;69937.69;;;-146.40;91.65
13033;BME280;6583;42.632;23.298;2023-06-05T10:49:11;69915.44;;;-146.40;93.49
13033;BME280;6583;42.632;23.298;2023-06-05T10:51:42;69913.41;;;-146.40;90.46
13033;BME280;6583;42.632;23.298;2023-06-05T10:54:10;69911.41;;;-146.40;90.83
13033;BME280;6583;42.632;23.298;2023-06-05T10:56:56;69907.34;;;-146.40;88.42
13033;BME280;6583;42.632;23.298;2023-06-05T10:59:27;69897.25;;;-146.40;88.50
13033;BME280;6583;42.632;23.298;2023-06-05T11:05:07;69883.06;;;-146.40;85.84
13033;BME280;6583;42.632;23.298;2023-06-05T11:07:35;69872.97;;;-146.40;89.39
13033;BME280;6583;42.632;23.298;2023-06-05T11:10:08;69856.78;;;-146.40;90.17
13033;BME280;6583;42.632;23.298;2023-06-05T11:12:57;69854.75;;;-146.40;84.80
13033;BME280;6583;42.632;23.298;2023-06-05T11:15:43;69860.81;;;-146.40;87.64
13033;BME280;6583;42.632;23.298;2023-06-05T11:18:34;69860.81;;;-146.40;88.46
13033;BME280;6583;42.632;23.298;2023-06-05T11:21:02;69860.81;;;-146.40;86.98
13033;BME280;6583;42.632;23.298;2023-06-05T11:23:29;69856.78;;;-146.40;86.39
13033;BME280;6583;42.632;23.298;2023-06-05T11:25:57;69850.72;;;-146.40;85.49
13033;BME280;6583;42.632;23.298;2023-06-05T11:28:38;69862.84;;;-146.40;75.79
13033;BME280;6583;42.632;23.298;2023-06-05T11:31:07;69858.81;;;-146.40;73.41
13033;BME280;6583;42.632;23.298;2023-06-05T11:33:34;69858.81;;;-146.40;74.08
13033;BME280;6583;42.632;23.298;2023-06-05T11:36:03;69844.66;;;-146.40;77.52
13033;BME280;6583;42.632;23.298;2023-06-05T11:38:31;69842.63;;;-146.40;77.59
13033;BME280;6583;42.632;23.298;2023-06-05T11:40:58;69834.53;;;-146.40;78.48
13033;BME280;6583;42.632;23.298;2023-06-05T11:43:24;69810.25;;;-146.40;80.17
13033;BME280;6583;42.632;23.298;2023-06-05T11:45:52;69802.16;;;-146.40;70.73
13033;BME280;6583;42.632;23.298;2023-06-05T11:48:21;69781.94;;;-146.40;70.85
13033;BME280;6583;42.632;23.298;2023-06-05T11:50:53;69769.81;;;-146.40;71.60
13033;BME280;6583;42.632;23.298;2023-06-05T11:53:20;69755.63;;;-146.40;67.55
13033;BME280;6583;42.632;23.298;2023-06-05T11:55:47;69743.50;;;-146.40;65.57
13033;BME280;6583;42.632;23.298;2023-06-05T11:58:32;69733.38;;;-146.40;66.30
13033;BME280;6583;42.632;23.298;2023-06-05T12:01:06;69737.44;;;-146.40;69.17
13033;BME280;6583;42.632;23.298;2023-06-05T12:03:34;69733.38;;;-146.40;68.57
13033;BME280;6583;42.632;23.298;2023-06-05T12:06:02;69735.41;;;-146.40;68.11
13033;BME280;6583;42.632;23.298;2023-06-05T12:08:30;69735.41;;;-146.40;65.81
13033;BME280;6583;42.632;23.298;2023-06-05T12:10:58;69739.47;;;-146.40;68.27
13033;BME280;6583;42.632;23.298;2023-06-05T12:13:46;69749.56;;;-146.40;70.39
13033;BME280;6583;42.632;23.298;2023-06-05T12:16:13;69733.38;;;-146.40;71.37
13033;BME280;6583;42.632;23.298;2023-06-05T12:18:42;69743.50;;;-146.40;70.23
13033;BME280;6583;42.632;23.298;2023-06-05T12:21:19;69739.47;;;-146.40;67.57
13033;BME280;6583;42.632;23.298;2023-06-05T12:23:46;69727.31;;;-146.40;71.43
13033;BME280;6583;42.632;23.298;2023-06-05T12:26:14;69737.44;;;-146.40;67.64
13033;BME280;6583;42.632;23.298;2023-06-05T12:28:42;69733.38;;;-146.40;64.68
13033;BME280;6583;42.632;23.298;2023-06-05T12:31:09;69723.28;;;-146.40;68.15
13033;BME280;6583;42.632;23.298;2023-06-05T12:33:47;69723.28;;;-146.40;70.95
13033;BME280;6583;42.632;23.298;2023-06-05T12:36:14;69717.22;;;-146.40;69.03
13033;BME280;6583;42.632;23.298;2023-06-05T12:38:42;69723.28;;;-146.40;65.53
13033;BME280;6583;42.632;23.298;2023-06-05T12:41:09;69717.22;;;-146.40;67.03
13033;BME280;6583;42.632;23.298;2023-06-05T12:43:36;69696.97;;;-146.40;66.59
13033;BME280;6583;42.632;23.298;2023-06-05T12:46:04;69692.94;;;-146.40;65.69
13033;BME280;6583;42.632;23.298;2023-06-05T12:48:31;69686.88;;;-146.40;68.25
13033;BME280;6583;42.632;23.298;2023-06-05T12:50:59;69694.97;;;-146.40;65.33